Time;durP1;ratioP1;P1;durP2;ratioP2;P2;SDS_P1;SDS_P2;PMS_P1;PMS_P2;Temp;Humidity;BMP_temperature;BMP_pressure;BME280_temperature;BME280_humidity;BME280_pressure;Samples;Min_cycle;Max_cycle;Signal;HPM_P1;HPM_P2
2022/09/08 00:05:19;;;;;;;5.72;3.58;;;25.80;75.10;;;;;;10868479;32;20016;-70
2022/09/08 00:11:24;;;;;;;7.37;3.50;;;25.80;75.10;;;;;;10868100;32;20050;-70
2022/09/08 00:17:27;;;;;;;6.12;3.60;;;25.80;75.30;;;;;;10863881;32;20051;-69
2022/09/08 00:23:29;;;;;;;4.65;3.10;;;25.80;75.20;;;;;;10863465;32;20081;-70
2022/09/08 00:29:31;;;;;;;4.87;2.83;;;25.70;75.20;;;;;;10867598;32;20045;-70
2022/09/08 00:35:32;;;;;;;5.10;2.72;;;25.80;75.20;;;;;;10866541;32;20031;-70
2022/09/08 00:41:35;;;;;;;5.28;3.85;;;25.80;75.10;;;;;;10867488;32;20031;-69
2022/09/08 00:47:43;;;;;;;12.95;5.25;;;25.70;75.30;;;;;;10867264;32;20340;-69
2022/09/08 00:53:47;;;;;;;6.87;4.00;;;25.70;75.30;;;;;;10853807;32;20046;-70
2022/09/08 00:59:49;;;;;;;8.32;5.47;;;25.60;75.40;;;;;;10866889;32;20085;-70
2022/09/08 01:06:11;;;;;;;7.10;4.62;;;25.60;75.60;;;;;;10866016;32;20309;-70
2022/09/08 01:18:38;;;;;;;5.82;4.18;;;25.50;75.70;;;;;;10759580;33;20152;-70
2022/09/08 01:25:07;;;;;;;5.55;3.53;;;25.50;75.60;;;;;;10759419;33;20036;-70
2022/09/08 01:31:09;;;;;;;4.40;3.22;;;25.50;75.70;;;;;;10759067;33;20083;-70
2022/09/08 01:37:12;;;;;;;5.37;3.83;;;25.50;75.80;;;;;;10760069;33;20024;-70
2022/09/08 01:43:13;;;;;;;4.22;3.30;;;25.40;75.90;;;;;;10759944;33;20040;-70
2022/09/08 01:49:16;;;;;;;5.80;4.50;;;25.40;76.00;;;;;;10850505;32;20035;-70
2022/09/08 01:55:17;;;;;;;6.37;3.53;;;25.30;76.10;;;;;;10872276;32;20054;-69
2022/09/08 02:01:19;;;;;;;7.18;5.07;;;25.30;76.30;;;;;;10872728;32;20087;-70
2022/09/08 02:07:21;;;;;;;5.90;3.83;;;25.20;76.40;;;;;;10872501;32;20385;-70
2022/09/08 02:13:23;;;;;;;8.15;4.82;;;25.20;76.40;;;;;;10874172;32;20027;-70
2022/09/08 02:19:25;;;;;;;6.53;4.57;;;25.30;76.40;;;;;;10872220;32;20039;-70
2022/09/08 02:25:28;;;;;;;8.13;5.78;;;25.10;76.70;;;;;;10867387;32;20031;-70
2022/09/08 02:31:30;;;;;;;8.95;4.47;;;25.00;76.90;;;;;;10871691;32;20087;-70
2022/09/08 02:37:32;;;;;;;7.47;6.45;;;24.90;77.00;;;;;;10871555;32;20049;-69
2022/09/08 02:43:35;;;;;;;7.40;5.28;;;24.90;77.20;;;;;;10871504;32;20012;-70
2022/09/08 02:49:37;;;;;;;7.57;5.00;;;24.90;77.00;;;;;;10871114;32;20031;-70
2022/09/08 02:55:40;;;;;;;7.78;5.18;;;24.90;77.10;;;;;;10871002;32;20055;-70
2022/09/08 03:01:46;;;;;;;6.95;5.32;;;24.90;77.10;;;;;;10870644;32;20027;-69
2022/09/08 03:07:49;;;;;;;9.60;4.28;;;25.00;76.90;;;;;;10870645;32;20493;-69
2022/09/08 03:13:52;;;;;;;10.57;5.80;;;25.00;76.80;;;;;;10870306;32;20318;-70
2022/09/08 03:19:58;;;;;;;7.32;5.45;;;24.90;76.80;;;;;;10870061;32;20012;-70
2022/09/08 03:26:07;;;;;;;8.18;4.70;;;24.80;77.20;;;;;;10869690;32;20023;-70
2022/09/08 03:32:09;;;;;;;8.07;4.25;;;24.80;77.40;;;;;;10869684;32;20389;-70
2022/09/08 03:38:17;;;;;;;9.68;4.87;;;24.80;77.40;;;;;;10855642;32;20020;-70
2022/09/08 03:44:19;;;;;;;6.65;3.92;;;24.80;77.50;;;;;;10869145;32;20173;-70
2022/09/08 03:50:23;;;;;;;6.57;4.78;;;24.70;77.60;;;;;;10868787;32;20051;-69
2022/09/08 03:56:25;;;;;;;7.22;5.07;;;24.70;77.50;;;;;;10864334;32;20054;-70
2022/09/08 04:02:55;;;;;;;7.12;4.00;;;24.70;77.50;;;;;;10868463;32;20046;-70
2022/09/08 04:08:58;;;;;;;7.00;4.50;;;24.70;77.40;;;;;;10868460;32;20024;-70
2022/09/08 04:15:00;;;;;;;6.62;4.93;;;24.60;77.60;;;;;;10868249;32;20400;-70
2022/09/08 04:21:04;;;;;;;9.35;5.35;;;24.50;77.70;;;;;;10867953;32;20172;-70
2022/09/08 04:27:06;;;;;;;8.95;4.93;;;24.50;77.50;;;;;;10868500;32;20050;-70
2022/09/08 04:33:09;;;;;;;7.32;5.18;;;24.60;77.30;;;;;;10854366;32;20388;-71
2022/09/08 04:40:03;;;;;;;5.28;3.45;;;24.50;77.40;;;;;;10866618;32;20024;-70
2022/09/08 04:46:08;;;;;;;5.28;3.30;;;24.40;77.80;;;;;;10753751;33;20054;-71
2022/09/08 04:52:35;;;;;;;5.85;4.00;;;24.40;78.10;;;;;;10753036;33;20068;-70
2022/09/08 04:58:39;;;;;;;6.47;5.10;;;24.40;78.10;;;;;;10752889;33;20460;-71
2022/09/08 05:04:42;;;;;;;5.28;3.37;;;24.40;78.20;;;;;;10752701;33;20024;-71
2022/09/08 05:10:44;;;;;;;12.13;4.57;;;24.30;78.50;;;;;;10752487;33;20410;-70
2022/09/08 05:16:46;;;;;;;9.57;6.07;;;24.30;78.80;;;;;;10756351;32;20040;-70
2022/09/08 05:22:48;;;;;;;6.40;4.78;;;24.30;78.70;;;;;;10866387;32;20289;-69
2022/09/08 05:28:50;;;;;;;8.10;4.22;;;24.30;79.00;;;;;;10865508;32;20059;-69
2022/09/08 05:34:52;;;;;;;8.85;7.00;;;24.20;78.90;;;;;;10853066;32;20032;-70
2022/09/08 05:40:54;;;;;;;12.32;8.13;;;24.20;78.30;;;;;;10866030;32;20036;-70
2022/09/08 05:46:56;;;;;;;8.30;5.75;;;23.90;77.90;;;;;;10864922;32;20360;-69
2022/09/08 05:52:59;;;;;;;8.40;5.90;;;23.80;78.00;;;;;;10864456;32;20062;-69
2022/09/08 05:59:01;;;;;;;5.40;3.03;;;24.00;78.30;;;;;;10868452;32;20028;-70
2022/09/08 06:05:03;;;;;;;4.65;2.95;;;24.10;77.90;;;;;;10872467;32;20050;-70
2022/09/08 06:11:07;;;;;;;11.00;4.25;;;24.20;77.70;;;;;;10872059;32;20043;-70
2022/09/08 06:17:31;;;;;;;5.65;2.87;;;24.30;77.60;;;;;;10858418;32;20032;-71
2022/09/08 06:23:34;;;;;;;4.72;3.08;;;24.40;77.70;;;;;;10865403;32;20517;-70
2022/09/08 06:29:58;;;;;;;4.35;2.47;;;24.50;77.60;;;;;;10867985;32;20031;-71
2022/09/08 06:36:15;;;;;;;8.45;3.05;;;24.60;77.60;;;;;;10871042;32;20368;-69
2022/09/08 06:42:29;;;;;;;4.30;2.47;;;24.40;77.70;;;;;;10869602;32;20054;-68
2022/09/08 06:48:35;;;;;;;4.68;2.85;;;24.30;78.00;;;;;;10870652;32;20058;-71
2022/09/08 06:55:15;;;;;;;3.10;1.80;;;24.20;78.40;;;;;;10867479;32;20028;-70
2022/09/08 07:01:52;;;;;;;2.25;1.62;;;24.20;78.40;;;;;;10844660;32;20031;-69
2022/09/08 07:08:06;;;;;;;4.80;2.22;;;24.30;78.20;;;;;;10870035;32;20036;-69
2022/09/08 07:14:39;;;;;;;4.62;3.25;;;24.20;78.20;;;;;;10869838;32;20035;-69
2022/09/08 07:21:26;;;;;;;5.22;3.45;;;24.00;78.40;;;;;;10867031;32;20439;-69
2022/09/08 07:27:31;;;;;;;4.10;3.28;;;24.10;78.40;;;;;;10869558;32;20341;-70
2022/09/08 07:33:43;;;;;;;4.62;3.17;;;24.10;78.30;;;;;;10871153;32;20028;-71
2022/09/08 07:40:02;;;;;;;5.10;3.20;;;24.10;78.20;;;;;;10869294;32;20019;-69
2022/09/08 07:46:28;;;;;;;5.65;2.83;;;24.30;78.00;;;;;;10868922;32;20016;-70
2022/09/08 07:52:49;;;;;;;3.87;2.20;;;24.30;77.70;;;;;;10867462;32;20066;-71
2022/09/08 07:59:17;;;;;;;2.97;1.83;;;24.40;77.30;;;;;;10183779;32;22298517;-69
2022/09/08 08:05:23;;;;;;;4.47;3.13;;;24.60;77.40;;;;;;10754181;33;20020;-70
2022/09/08 08:11:56;;;;;;;3.45;2.53;;;24.50;77.50;;;;;;10790208;33;20047;-69
2022/09/08 08:18:22;;;;;;;5.15;3.10;;;24.30;77.30;;;;;;10789978;33;20283;-71
2022/09/08 08:24:53;;;;;;;6.78;2.87;;;24.30;75.60;;;;;;10792901;32;20028;-70
2022/09/08 08:31:22;;;;;;;7.20;3.22;;;23.90;74.20;;;;;;10826984;32;20028;-69
2022/09/08 08:37:29;;;;;;;3.10;1.90;;;23.80;75.60;;;;;;10829437;32;20397;-68
2022/09/08 08:43:55;;;;;;;3.17;2.03;;;23.80;75.70;;;;;;10830007;32;20028;-70
2022/09/08 08:50:27;;;;;;;3.33;1.67;;;23.90;76.00;;;;;;10829997;32;20443;-70
2022/09/08 08:57:09;;;;;;;2.83;1.87;;;24.00;76.20;;;;;;10829668;32;20058;-70
2022/09/08 09:03:19;;;;;;;4.55;2.58;;;24.20;76.50;;;;;;10702752;32;20060;-70
2022/09/08 09:09:52;;;;;;;7.47;3.20;;;24.30;76.50;;;;;;10678662;33;20052;-70
2022/09/08 09:16:25;;;;;;;4.20;2.22;;;24.50;76.50;;;;;;10678564;33;20338;-71
2022/09/08 09:22:55;;;;;;;6.45;1.58;;;24.60;76.20;;;;;;10678445;33;20056;-70
2022/09/08 09:29:31;;;;;;;6.07;2.20;;;24.70;76.00;;;;;;10677878;33;20344;-70
2022/09/08 09:35:36;;;;;;;4.95;2.75;;;24.90;75.80;;;;;;10682179;33;20099;-71
2022/09/08 09:42:06;;;;;;;6.28;2.75;;;25.20;75.30;;;;;;10683424;33;20030;-71
2022/09/08 09:48:15;;;;;;;3.12;1.92;;;25.30;74.50;;;;;;10652457;32;20045;-71
2022/09/08 09:54:28;;;;;;;2.03;1.60;;;25.40;74.50;;;;;;10644386;33;20354;-69
2022/09/08 10:00:45;;;;;;;2.83;1.83;;;25.60;74.40;;;;;;10716739;32;20423;-70
2022/09/08 10:07:06;;;;;;;3.25;1.80;;;25.80;74.20;;;;;;10812410;32;20069;-70
2022/09/08 10:13:45;;;;;;;5.18;2.45;;;25.60;74.20;;;;;;10788631;33;20059;-69
2022/09/08 10:19:52;;;;;;;;;;;25.60;74.20;;;;;;10794074;33;20445;-70
2022/09/08 10:26:03;;;;;;;;;;;25.50;74.40;;;;;;10821236;32;19919;-70
2022/09/08 10:32:47;;;;;;;2.83;2.03;;;25.60;74.20;;;;;;10834471;32;19953;-69
2022/09/08 10:38:59;;;;;;;4.57;2.35;;;25.80;73.70;;;;;;10834405;32;20028;-69
2022/09/08 10:45:08;;;;;;;3.92;2.15;;;25.90;73.50;;;;;;10833952;32;20023;-70
2022/09/08 10:51:16;;;;;;;2.97;2.00;;;25.90;73.50;;;;;;10820898;32;20067;-70
2022/09/08 10:57:37;;;;;;;;;;;25.90;73.50;;;;;;10834111;32;20032;-69
2022/09/08 11:03:42;;;;;;;5.93;2.10;;;25.90;73.50;;;;;;10867578;32;19945;-70
2022/09/08 11:10:16;;;;;;;2.92;1.95;;;26.20;73.30;;;;;;10870463;32;20046;-70
2022/09/08 11:16:53;;;;;;;5.03;2.22;;;26.30;72.90;;;;;;10856908;32;20456;-69
2022/09/08 11:23:19;;;;;;;6.62;2.30;;;26.50;72.70;;;;;;10869974;32;20016;-71
2022/09/08 11:29:53;;;;;;;2.30;1.55;;;27.20;71.60;;;;;;10856842;32;20439;-67
2022/09/08 11:36:23;;;;;;;2.25;1.58;;;27.70;70.40;;;;;;10868960;32;20020;-68
2022/09/08 11:42:56;;;;;;;3.20;1.73;;;28.20;69.50;;;;;;10869552;32;20027;-68
2022/09/08 11:49:20;;;;;;;1.80;1.33;;;28.30;68.90;;;;;;10855677;32;20019;-68
2022/09/08 11:55:27;;;;;;;1.98;1.40;;;28.50;67.90;;;;;;10868042;32;20055;-68
2022/09/08 12:01:41;;;;;;;;;;;28.70;67.60;;;;;;10868947;32;20016;-69
2022/09/08 12:07:43;;;;;;;2.55;1.45;;;28.50;67.60;;;;;;10868515;32;19946;-68
2022/09/08 12:13:59;;;;;;;8.00;2.37;;;28.40;67.20;;;;;;10854797;32;20054;-69
2022/09/08 12:20:29;;;;;;;3.40;1.70;;;28.60;66.50;;;;;;10868113;32;20062;-68
2022/09/08 12:27:00;;;;;;;5.35;2.47;;;28.70;65.70;;;;;;10854317;32;20388;-68
2022/09/08 12:33:25;;;;;;;8.18;2.03;;;28.80;65.40;;;;;;10854843;32;20035;-68
2022/09/08 12:39:49;;;;;;;3.17;1.55;;;28.70;65.10;;;;;;10856330;32;20356;-68
2022/09/08 12:46:13;;;;;;;2.97;1.65;;;28.70;64.90;;;;;;10685445;32;20092;-67
2022/09/08 12:53:00;;;;;;;4.47;1.60;;;28.80;64.60;;;;;;10630796;33;20059;-68
2022/09/08 12:59:27;;;;;;;2.30;1.50;;;28.80;64.50;;;;;;10648343;32;20030;-69
2022/09/08 13:05:29;;;;;;;1.80;1.50;;;28.80;64.50;;;;;;10665832;33;20056;-69
2022/09/08 13:11:46;;;;;;;3.58;2.05;;;28.80;64.10;;;;;;10690510;33;20334;-70
2022/09/08 13:17:52;;;;;;;;;;;28.60;64.30;;;;;;10690905;33;20033;-69
2022/09/08 13:24:14;;;;;;;2.62;1.50;;;28.30;65.20;;;;;;10686968;33;19935;-69
2022/09/08 13:30:20;;;;;;;2.83;1.92;;;28.20;65.40;;;;;;10690444;33;20048;-70
2022/09/08 13:36:31;;;;;;;3.70;2.17;;;28.00;65.90;;;;;;10690323;33;20428;-69
2022/09/08 13:43:02;;;;;;;2.75;1.77;;;27.80;66.00;;;;;;10690237;33;20303;-69
2022/09/08 13:49:07;;;;;;;4.75;2.35;;;27.80;66.30;;;;;;10677329;33;20026;-68
2022/09/08 13:55:25;;;;;;;1.55;1.20;;;27.70;66.40;;;;;;10677225;33;20037;-69
2022/09/08 14:01:37;;;;;;;4.10;1.60;;;27.60;66.70;;;;;;10689871;33;20017;-69
2022/09/08 14:07:46;;;;;;;3.15;1.80;;;27.70;66.70;;;;;;10676900;33;20022;-69
2022/09/08 14:13:48;;;;;;;2.60;1.48;;;27.90;66.20;;;;;;10689348;33;20438;-68
2022/09/08 14:20:24;;;;;;;2.58;1.65;;;28.00;66.40;;;;;;10681275;33;20612;-69
2022/09/08 14:26:56;;;;;;;2.85;1.52;;;28.20;66.80;;;;;;10664074;32;20129;-69
2022/09/08 14:33:32;;;;;;;3.17;1.77;;;28.20;66.80;;;;;;10582195;33;20034;-69
2022/09/08 14:40:00;;;;;;;3.05;1.73;;;28.20;66.80;;;;;;10607518;33;20069;-71
2022/09/08 14:46:14;;;;;;;2.75;1.70;;;28.00;67.10;;;;;;10608218;33;20311;-70
2022/09/08 14:52:35;;;;;;;2.80;1.75;;;27.80;67.50;;;;;;10608323;33;20041;-70
2022/09/08 14:58:55;;;;;;;4.20;2.37;;;27.70;67.50;;;;;;10607532;33;20050;-71
2022/09/08 15:05:14;;;;;;;4.05;2.03;;;27.60;67.50;;;;;;10681821;33;20026;-70
2022/09/08 15:11:26;;;;;;;3.08;1.20;;;27.50;67.80;;;;;;10681997;33;20063;-70
2022/09/08 15:17:39;;;;;;;4.80;2.10;;;27.40;67.80;;;;;;10681867;33;20037;-70
2022/09/08 15:23:47;;;;;;;1.90;1.30;;;27.30;68.20;;;;;;10681469;33;20367;-69
2022/09/08 15:30:16;;;;;;;3.25;1.40;;;27.20;68.10;;;;;;10667809;33;20052;-69
2022/09/08 15:36:36;;;;;;;2.35;1.70;;;27.30;68.10;;;;;;10681570;33;20028;-69
2022/09/08 15:42:56;;;;;;;2.80;1.23;;;27.10;68.30;;;;;;10681387;33;20029;-70
2022/09/08 15:49:02;;;;;;;4.55;1.70;;;27.00;68.80;;;;;;10668731;33;20394;-70
2022/09/08 15:55:18;;;;;;;3.17;1.63;;;27.00;69.00;;;;;;10830709;32;20028;-69
2022/09/08 16:02:01;;;;;;;4.62;1.12;;;27.00;69.00;;;;;;10871585;27;20044;-69
2022/09/08 16:08:14;;;;;;;2.37;1.20;;;27.00;68.90;;;;;;10868458;32;20023;-70
2022/09/08 16:14:32;;;;;;;1.17;0.98;;;26.90;69.00;;;;;;10868054;32;20057;-70
2022/09/08 16:20:34;;;;;;;;;;;26.80;69.30;;;;;;10868405;32;20050;-70
2022/09/08 16:26:40;;;;;;;3.12;1.65;;;26.80;69.50;;;;;;10868050;32;19922;-69
2022/09/08 16:32:47;;;;;;;13.57;2.35;;;26.80;69.60;;;;;;10854458;32;20081;-69
2022/09/08 16:39:09;;;;;;;2.37;1.27;;;26.80;69.50;;;;;;10867593;32;20043;-69
2022/09/08 16:46:02;;;;;;;2.85;1.02;;;26.80;69.50;;;;;;10867037;32;20070;-69
2022/09/08 16:52:36;;;;;;;2.28;1.17;;;26.80;69.90;;;;;;10753668;33;20055;-69
2022/09/08 16:58:41;;;;;;;1.15;0.82;;;26.70;70.00;;;;;;10678985;33;20064;-69
2022/09/08 17:04:51;;;;;;;2.60;1.35;;;26.80;70.10;;;;;;10679378;33;20025;-69
2022/09/08 17:11:00;;;;;;;1.58;1.17;;;26.80;70.30;;;;;;10680393;33;20025;-70
2022/09/08 17:17:32;;;;;;;4.87;1.45;;;26.70;70.30;;;;;;10679931;33;20181;-70
2022/09/08 17:24:07;;;;;;;2.17;1.37;;;26.70;70.20;;;;;;10680609;33;20433;-70
2022/09/08 17:30:17;;;;;;;2.37;1.35;;;26.70;70.00;;;;;;10680192;33;20048;-70
2022/09/08 17:36:49;;;;;;;3.45;1.67;;;26.70;70.00;;;;;;10817620;33;20286;-70
2022/09/08 17:43:01;;;;;;;2.90;1.70;;;26.60;70.10;;;;;;10827001;33;20024;-69
2022/09/08 17:49:29;;;;;;;1.92;1.27;;;26.50;70.30;;;;;;10824578;33;20024;-69
2022/09/08 17:55:49;;;;;;;2.58;1.48;;;26.40;70.40;;;;;;10818978;32;20024;-69
2022/09/08 18:02:44;;;;;;;3.30;1.87;;;26.40;70.40;;;;;;10835550;32;20042;-69
2022/09/08 18:08:46;;;;;;;2.05;1.50;;;26.30;70.50;;;;;;10739438;33;20071;-69
2022/09/08 18:15:16;;;;;;;4.72;1.75;;;26.30;70.70;;;;;;10743039;33;20063;-69
2022/09/08 18:21:33;;;;;;;5.50;1.52;;;26.30;70.60;;;;;;10721467;33;20083;-69
2022/09/08 18:27:41;;;;;;;7.57;2.78;;;26.30;70.70;;;;;;10738833;33;20028;-69
2022/09/08 18:33:48;;;;;;;7.12;2.35;;;26.20;70.90;;;;;;10757135;33;20052;-69
2022/09/08 18:40:07;;;;;;;4.87;2.30;;;26.10;71.00;;;;;;10756978;33;20063;-69
2022/09/08 18:46:13;;;;;;;4.35;2.42;;;26.00;71.10;;;;;;10852757;32;20015;-69
2022/09/08 18:52:24;;;;;;;6.00;2.10;;;26.00;71.10;;;;;;10872429;32;20027;-71
2022/09/08 18:58:32;;;;;;;5.47;1.08;;;26.00;71.10;;;;;;10858002;32;20020;-72
2022/09/08 19:04:56;;;;;;;3.55;1.95;;;26.00;71.10;;;;;;10867621;32;20330;-72
2022/09/08 19:11:22;;;;;;;6.20;2.37;;;26.00;71.30;;;;;;10870876;32;20012;-72
2022/09/08 19:17:49;;;;;;;4.87;2.03;;;25.90;71.50;;;;;;10870360;32;20046;-71
2022/09/08 19:23:58;;;;;;;5.47;1.80;;;25.90;71.60;;;;;;10870268;32;20046;-72
2022/09/08 19:30:19;;;;;;;10.13;1.90;;;25.80;71.80;;;;;;10870176;32;20134;-72
2022/09/08 19:36:39;;;;;;;4.22;1.73;;;25.80;72.00;;;;;;10869946;32;20319;-72
2022/09/08 19:42:54;;;;;;;4.72;2.55;;;25.80;72.10;;;;;;10869718;32;20042;-72
2022/09/08 19:49:06;;;;;;;9.10;2.80;;;25.80;72.10;;;;;;10854862;32;20024;-72
2022/09/08 19:55:33;;;;;;;7.97;1.95;;;25.80;72.30;;;;;;10831017;32;20058;-72
2022/09/08 20:01:46;;;;;;;4.28;1.80;;;25.60;72.40;;;;;;10818652;32;20024;-72
2022/09/08 20:07:48;;;;;;;5.18;2.15;;;25.60;72.50;;;;;;10831452;32;20058;-72
2022/09/08 20:13:53;;;;;;;5.75;1.58;;;25.50;72.50;;;;;;10830789;32;20028;-72
2022/09/08 20:20:31;;;;;;;9.63;2.90;;;25.60;72.40;;;;;;10830646;32;20032;-72
2022/09/08 20:26:42;;;;;;;4.30;2.35;;;25.60;72.30;;;;;;10826956;33;20024;-72
2022/09/08 20:33:16;;;;;;;4.28;2.33;;;25.60;72.40;;;;;;10830867;32;20019;-72
2022/09/08 20:39:21;;;;;;;9.57;2.47;;;25.60;72.30;;;;;;10830513;32;20016;-72
2022/09/08 20:46:22;;;;;;;7.40;2.60;;;25.50;72.30;;;;;;10830547;32;20020;-72
2022/09/08 20:52:48;;;;;;;4.10;2.17;;;25.50;72.40;;;;;;10717475;33;20033;-72
2022/09/08 20:59:20;;;;;;;3.65;1.45;;;25.50;72.60;;;;;;10716635;33;20033;-72
2022/09/08 21:05:32;;;;;;;3.50;1.42;;;25.50;72.70;;;;;;10716743;33;20021;-72
2022/09/08 21:11:38;;;;;;;3.62;2.22;;;25.40;72.70;;;;;;10716798;33;20460;-72
2022/09/08 21:17:46;;;;;;;8.02;1.85;;;25.40;72.70;;;;;;10716211;33;20032;-72
2022/09/08 21:24:12;;;;;;;5.78;2.62;;;25.30;72.80;;;;;;10716227;33;20051;-72
2022/09/08 21:30:20;;;;;;;5.03;2.40;;;25.30;73.00;;;;;;10834372;32;20023;-72
2022/09/08 21:37:00;;;;;;;5.18;2.47;;;25.10;73.20;;;;;;10837370;32;20055;-71
2022/09/08 21:43:11;;;;;;;5.85;1.52;;;25.20;73.30;;;;;;10823726;32;20074;-69
2022/09/08 21:49:46;;;;;;;4.60;2.28;;;25.00;73.40;;;;;;10836547;32;20028;-69
2022/09/08 21:55:50;;;;;;;4.57;2.25;;;24.90;73.50;;;;;;10823157;32;20042;-69
2022/09/08 22:01:57;;;;;;;3.78;2.47;;;25.00;73.50;;;;;;10836128;32;20068;-69
2022/09/08 22:08:18;;;;;;;4.30;2.30;;;25.00;73.50;;;;;;10835989;32;20298;-69
2022/09/08 22:15:14;;;;;;;3.50;2.42;;;25.00;73.70;;;;;;10835592;32;20036;-69
2022/09/08 22:21:54;;;;;;;5.80;3.45;;;25.00;73.90;;;;;;10686508;33;20044;-69
2022/09/08 22:28:06;;;;;;;3.90;2.70;;;25.00;73.80;;;;;;10686933;33;20052;-69
2022/09/08 22:34:31;;;;;;;6.80;2.55;;;24.80;74.00;;;;;;10685300;33;20080;-69
2022/09/08 22:40:51;;;;;;;4.55;2.55;;;24.80;74.00;;;;;;10684463;33;20038;-69
2022/09/08 22:47:27;;;;;;;2.47;1.48;;;24.80;74.00;;;;;;10685072;33;20029;-69
2022/09/08 22:53:51;;;;;;;4.28;2.40;;;24.70;74.00;;;;;;10728063;33;20054;-69
2022/09/08 22:59:58;;;;;;;3.50;2.42;;;24.60;74.20;;;;;;10833849;32;20328;-69
2022/09/08 23:06:32;;;;;;;4.10;2.33;;;24.70;74.30;;;;;;10833020;32;20054;-69
2022/09/08 23:12:57;;;;;;;4.87;2.22;;;24.50;74.20;;;;;;10833539;32;20032;-69
2022/09/08 23:19:27;;;;;;;3.08;1.73;;;24.60;74.20;;;;;;10833450;32;20055;-69
2022/09/08 23:25:35;;;;;;;7.12;2.17;;;24.60;74.30;;;;;;10849822;32;20058;-69
2022/09/08 23:31:55;;;;;;;4.37;2.55;;;24.50;74.30;;;;;;10870019;32;20197;-69
2022/09/08 23:38:09;;;;;;;3.45;2.08;;;24.40;74.40;;;;;;10868949;32;20396;-69
2022/09/08 23:44:18;;;;;;;2.42;1.73;;;24.50;74.50;;;;;;10869556;32;20054;-69
2022/09/08 23:50:20;;;;;;;3.42;2.15;;;24.40;74.50;;;;;;10869066;32;20038;-69
2022/09/08 23:56:23;;;;;;;4.15;2.25;;;24.30;74.80;;;;;;10868845;32;20054;-69
